Terminal Aerodrome Forecast
Issued by NWS

Home | Current Version | Previous Version | Text Only | Print | Product List | Glossary On
Versions: 1 2 3 4 5 6 7 8 9 10 11 12 13 14 15
746
FTUS46 KSEW 212335
TAFBFI
TAF
KBFI 212335Z 2200/2224 13008KT 4SM -RA BR SCT009 BKN019 OVC040
     FM220100 17018G27KT 5SM -RA BR OVC020
     FM221200 22014G22KT P6SM -SHRA SCT020 OVC030
     FM221800 18013G20KT P6SM VCSH SCT030 BKN060=

USA.gov is the U.S. government's official web portal to all federal, state and local government web resources and services.